createdAt,value
2022-08-06T00:00:06.426Z,79.40
2022-08-06T00:05:06.549Z,81.51
2022-08-06T00:10:09.190Z,81.46
2022-08-06T00:15:14.466Z,81.24
2022-08-06T00:20:30.037Z,80.92
2022-08-06T00:25:35.573Z,80.84
2022-08-06T00:30:38.187Z,80.30
2022-08-06T00:35:40.230Z,80.20
2022-08-06T00:40:50.525Z,80.34
2022-08-06T00:46:00.673Z,80.84
2022-08-06T00:51:03.654Z,81.16
2022-08-06T00:56:08.939Z,82.22
2022-08-06T01:01:17.460Z,84.12
2022-08-06T01:06:53.928Z,85.11
2022-08-06T01:11:43.068Z,86.41
2022-08-06T01:16:48.995Z,86.77
2022-08-06T01:21:59.509Z,86.72
2022-08-06T01:27:23.046Z,87.43
2022-08-06T01:32:42.730Z,88.03
2022-08-06T01:38:00.873Z,88.16
2022-08-06T01:43:22.798Z,88.61
2022-08-06T01:48:28.596Z,88.97
2022-08-06T01:54:05.910Z,88.86
2022-08-06T01:58:58.880Z,88.84
2022-08-06T02:04:01.338Z,88.68
2022-08-06T02:09:22.823Z,88.63
2022-08-06T02:14:29.916Z,89.03
2022-08-06T02:19:48.076Z,89.63
2022-08-06T02:25:02.661Z,90.08
2022-08-06T02:30:07.192Z,89.87
2022-08-06T02:35:10.063Z,89.19
2022-08-06T02:40:20.604Z,88.30
2022-08-06T02:45:58.516Z,88.10
2022-08-06T02:51:29.601Z,88.17
2022-08-06T02:56:29.689Z,88.68
2022-08-06T03:01:43.534Z,88.55
2022-08-06T03:06:47.459Z,87.79
2022-08-06T03:11:51.108Z,87.35
2022-08-06T03:16:57.680Z,87.71
2022-08-06T03:22:01.158Z,88.60
2022-08-06T03:27:07.762Z,90.01
2022-08-06T03:32:36.103Z,90.87
2022-08-06T03:37:59.523Z,91.41
2022-08-06T03:42:56.673Z,90.73
2022-08-06T03:48:07.449Z,90.44
2022-08-06T03:53:28.834Z,90.97
2022-08-06T03:58:32.596Z,91.33
2022-08-06T04:03:39.905Z,91.55
2022-08-06T04:08:42.449Z,91.64
2022-08-06T04:14:07.643Z,91.77
2022-08-06T04:19:15.754Z,91.89
2022-08-06T04:24:18.148Z,92.05
2022-08-06T04:29:23.485Z,91.70
2022-08-06T04:34:28.532Z,90.43
2022-08-06T04:39:38.041Z,90.43
2022-08-06T04:44:56.010Z,90.08
2022-08-06T04:50:07.430Z,89.23
2022-08-06T04:55:24.216Z,88.62
2022-08-06T05:00:33.417Z,88.94
2022-08-06T05:05:40.486Z,89.28
2022-08-06T05:10:50.104Z,90.20
2022-08-06T05:15:56.166Z,91.02
2022-08-06T05:20:59.720Z,91.70
2022-08-06T05:26:02.236Z,91.97
2022-08-06T05:31:04.221Z,92.06
2022-08-06T05:36:11.936Z,92.12
2022-08-06T05:41:21.980Z,92.31
2022-08-06T05:46:25.720Z,92.29
2022-08-06T05:51:45.563Z,92.21
2022-08-06T05:56:53.695Z,92.33
2022-08-06T06:01:58.662Z,92.32
2022-08-06T06:07:08.801Z,92.41
2022-08-06T06:12:12.700Z,92.44
2022-08-06T06:17:38.953Z,92.44
2022-08-06T06:22:46.824Z,92.46
2022-08-06T06:28:12.642Z,92.47
2022-08-06T06:34:06.650Z,92.40
2022-08-06T06:39:25.901Z,92.42
2022-08-06T06:46:05.387Z,92.13
2022-08-06T06:50:31.041Z,91.77
2022-08-06T06:55:57.309Z,91.46
2022-08-06T07:01:11.709Z,91.39
2022-08-06T07:06:31.738Z,91.35
2022-08-06T07:12:02.327Z,91.18
2022-08-06T07:17:43.662Z,91.22
2022-08-06T07:22:26.289Z,91.32
2022-08-06T07:27:41.848Z,91.30
2022-08-06T07:32:49.409Z,91.23
2022-08-06T07:38:04.732Z,91.15
2022-08-06T07:43:23.878Z,90.85
2022-08-06T07:48:33.364Z,90.76
2022-08-06T07:53:52.492Z,90.49
2022-08-06T07:59:06.676Z,89.79
2022-08-06T08:04:34.276Z,89.11
2022-08-06T08:10:01.753Z,89.01
2022-08-06T08:15:19.185Z,88.64
2022-08-06T08:20:36.476Z,88.44
2022-08-06T08:25:50.735Z,87.98
2022-08-06T08:30:54.753Z,87.65
2022-08-06T08:36:00.726Z,86.91
2022-08-06T08:41:22.275Z,86.31
2022-08-06T08:46:31.117Z,84.54
2022-08-06T08:51:42.352Z,84.13
2022-08-06T08:57:09.689Z,83.12
2022-08-06T09:02:16.982Z,81.53
2022-08-06T09:07:25.817Z,81.36
2022-08-06T09:12:45.400Z,81.53
2022-08-06T09:18:26.198Z,80.17
2022-08-06T09:23:16.640Z,80.35
2022-08-06T09:28:41.238Z,79.82
2022-08-06T09:34:30.227Z,80.30
2022-08-06T09:39:59.932Z,78.16
2022-08-06T09:45:16.364Z,74.26
2022-08-06T09:50:37.236Z,74.29
2022-08-06T09:55:41.493Z,70.52
2022-08-06T10:00:50.883Z,67.02
2022-08-06T10:06:04.273Z,67.67
2022-08-06T10:11:07.711Z,66.02
2022-08-06T10:16:29.088Z,65.81
2022-08-06T10:21:41.121Z,66.11
2022-08-06T10:26:44.885Z,64.27
2022-08-06T10:31:52.917Z,63.21
2022-08-06T10:36:59.982Z,61.42
2022-08-06T10:42:16.378Z,59.83
2022-08-06T10:48:59.813Z,59.65
2022-08-06T10:52:49.635Z,57.28
2022-08-06T10:57:52.276Z,58.16
2022-08-06T11:03:18.388Z,57.29
2022-08-06T11:08:45.286Z,55.89
2022-08-06T11:14:18.970Z,53.42
2022-08-06T11:19:56.462Z,54.61
2022-08-06T11:25:00.094Z,55.61
2022-08-06T11:30:13.109Z,55.74
2022-08-06T11:35:49.132Z,55.14
2022-08-06T11:41:09.685Z,54.91
2022-08-06T11:46:35.638Z,53.43
2022-08-06T11:52:03.942Z,54.77
2022-08-06T11:57:11.797Z,54.08
2022-08-06T12:02:37.806Z,52.85
2022-08-06T12:07:48.618Z,50.76
2022-08-06T12:12:53.651Z,51.93
2022-08-06T12:18:19.038Z,50.86
2022-08-06T12:23:23.558Z,47.86
2022-08-06T12:28:51.048Z,48.41
2022-08-06T12:33:53.286Z,49.99
2022-08-06T12:38:59.696Z,48.16
2022-08-06T12:44:06.534Z,46.97
2022-08-06T12:49:10.316Z,46.52
2022-08-06T12:54:26.119Z,46.97
2022-08-06T12:59:29.172Z,45.07
2022-08-06T13:04:48.863Z,46.00
2022-08-06T13:10:16.922Z,45.33
2022-08-06T13:15:18.445Z,46.05
2022-08-06T13:20:41.986Z,46.03
2022-08-06T13:25:53.038Z,46.44
2022-08-06T13:30:57.747Z,46.76
2022-08-06T13:36:08.269Z,46.80
2022-08-06T13:41:37.280Z,47.18
2022-08-06T13:46:44.374Z,48.23
2022-08-06T13:51:55.455Z,47.59
2022-08-06T13:57:00.022Z,47.23
2022-08-06T14:02:03.841Z,47.41
2022-08-06T14:07:06.757Z,46.83
2022-08-06T14:12:13.128Z,44.09
2022-08-06T14:17:19.559Z,43.61
2022-08-06T14:22:26.212Z,43.89
2022-08-06T14:27:31.149Z,44.60
2022-08-06T14:32:45.907Z,45.03
2022-08-06T14:37:52.185Z,44.33
2022-08-06T14:43:17.289Z,44.73
2022-08-06T14:48:19.296Z,44.45
2022-08-06T14:53:22.340Z,44.65
2022-08-06T14:58:24.601Z,43.69
2022-08-06T15:03:33.927Z,44.53
2022-08-06T15:08:36.835Z,45.07
2022-08-06T15:13:51.431Z,43.93
2022-08-06T15:19:30.358Z,43.29
2022-08-06T15:24:18.463Z,44.40
2022-08-06T15:29:27.493Z,44.04
2022-08-06T15:34:37.876Z,44.45
2022-08-06T15:39:52.316Z,45.04
2022-08-06T15:44:58.025Z,44.84
2022-08-06T15:50:04.730Z,45.37
2022-08-06T15:55:14.981Z,44.86
2022-08-06T16:00:23.067Z,44.50
2022-08-06T16:05:32.606Z,44.68
2022-08-06T16:11:02.280Z,45.07
2022-08-06T16:16:16.679Z,44.47
2022-08-06T16:21:33.895Z,45.10
2022-08-06T16:26:41.937Z,45.97
2022-08-06T16:31:53.864Z,46.47
2022-08-06T16:36:59.960Z,46.25
2022-08-06T16:42:05.549Z,46.38
2022-08-06T16:47:08.275Z,46.64
2022-08-06T16:52:42.186Z,46.23
2022-08-06T16:57:39.651Z,45.59
2022-08-06T17:02:45.197Z,43.82
2022-08-06T17:07:53.898Z,43.22
2022-08-06T17:13:02.191Z,42.25
2022-08-06T17:18:05.982Z,41.46
2022-08-06T17:23:08.482Z,39.99
2022-08-06T17:28:14.138Z,39.74
2022-08-06T17:33:16.447Z,39.58
2022-08-06T17:38:19.209Z,39.42
2022-08-06T17:43:55.066Z,40.08
2022-08-06T17:48:46.097Z,41.39
2022-08-06T17:53:52.561Z,42.84
2022-08-06T17:59:10.904Z,44.02
2022-08-06T18:04:22.641Z,45.45
2022-08-06T18:10:11.114Z,46.89
2022-08-06T18:14:57.179Z,48.40
2022-08-06T18:20:01.828Z,49.63
2022-08-06T18:25:04.278Z,50.46
2022-08-06T18:30:30.188Z,51.08
2022-08-06T18:35:55.425Z,51.36
2022-08-06T18:41:05.716Z,52.72
2022-08-06T18:46:16.984Z,54.67
2022-08-06T18:51:40.979Z,56.40
2022-08-06T18:56:48.836Z,55.97
2022-08-06T19:01:52.078Z,56.56
2022-08-06T19:06:54.031Z,57.50
2022-08-06T19:11:57.760Z,60.20
2022-08-06T19:17:07.936Z,60.84
2022-08-06T19:22:10.517Z,62.20
2022-08-06T19:28:07.285Z,66.37
2022-08-06T19:32:49.281Z,63.19
2022-08-06T19:37:59.498Z,59.84
2022-08-06T19:44:25.673Z,59.50
2022-08-06T19:48:29.124Z,58.43
2022-08-06T19:53:32.757Z,60.12
2022-08-06T19:58:35.135Z,64.46
2022-08-06T20:03:39.836Z,66.59
2022-08-06T20:08:42.461Z,63.07
2022-08-06T20:13:44.357Z,56.61
2022-08-06T20:18:47.252Z,59.79
2022-08-06T20:23:53.356Z,63.17
2022-08-06T20:29:20.410Z,65.19
2022-08-06T20:34:29.076Z,64.37
2022-08-06T20:39:32.160Z,61.40
2022-08-06T20:44:36.416Z,61.62
2022-08-06T20:50:03.337Z,65.50
2022-08-06T20:55:01.916Z,65.82
2022-08-06T21:00:28.475Z,63.05
2022-08-06T21:05:38.069Z,62.25
2022-08-06T21:10:49.738Z,61.82
2022-08-06T21:16:05.503Z,61.85
2022-08-06T21:21:17.110Z,60.48
2022-08-06T21:26:25.264Z,57.52
2022-08-06T21:31:31.924Z,59.81
2022-08-06T21:36:34.322Z,62.12
2022-08-06T21:41:55.016Z,60.91
2022-08-06T21:47:00.163Z,59.57
2022-08-06T21:52:03.104Z,60.48
2022-08-06T21:57:12.139Z,62.65
2022-08-06T22:02:26.645Z,60.80
2022-08-06T22:08:06.611Z,58.14
2022-08-06T22:13:11.848Z,60.43
2022-08-06T22:18:18.945Z,61.93
2022-08-06T22:23:32.994Z,59.38
2022-08-06T22:28:41.195Z,59.40
2022-08-06T22:33:59.010Z,60.96
2022-08-06T22:39:07.399Z,61.77
2022-08-06T22:44:14.755Z,62.49
2022-08-06T22:49:36.917Z,59.20
2022-08-06T22:54:58.405Z,60.21
2022-08-06T23:00:10.956Z,61.67
2022-08-06T23:05:20.172Z,62.27
2022-08-06T23:10:22.009Z,59.61
2022-08-06T23:15:39.407Z,58.61
2022-08-06T23:20:47.182Z,60.45
2022-08-06T23:26:00.167Z,61.79
2022-08-06T23:31:05.841Z,62.60
2022-08-06T23:36:08.045Z,60.66
2022-08-06T23:41:16.403Z,58.95
2022-08-06T23:46:28.090Z,60.87
2022-08-06T23:52:01.111Z,62.46
2022-08-06T23:56:57.654Z,60.25
